createdAt,value
2023-04-06T00:00:52.921Z,7.5
2023-04-06T00:02:00.190Z,7.5
2023-04-06T00:03:06.693Z,7.5
2023-04-06T00:04:15.584Z,7.4
2023-04-06T00:05:20.955Z,7.4
2023-04-06T00:06:27.576Z,7.4
2023-04-06T00:07:34.992Z,7.4
2023-04-06T00:08:41.711Z,7.3
2023-04-06T00:09:48.852Z,7.3
2023-04-06T00:10:55.898Z,7.3
2023-04-06T00:12:02.666Z,7.3
2023-04-06T00:13:10.129Z,7.3
2023-04-06T00:14:18.232Z,7.3
2023-04-06T00:15:23.839Z,7.3
2023-04-06T00:16:30.991Z,7.3
2023-04-06T00:17:44.803Z,7.3
2023-04-06T00:18:44.692Z,7.3
2023-04-06T00:19:51.703Z,7.2
2023-04-06T00:20:58.815Z,7.2
2023-04-06T00:22:06.655Z,7.3
2023-04-06T00:24:19.618Z,7.2
2023-04-06T00:25:32.899Z,7.2
2023-04-06T00:26:36.875Z,7.2
2023-04-06T00:27:40.417Z,7.2
2023-04-06T00:28:47.542Z,7.2
2023-04-06T00:29:54.693Z,7.2
2023-04-06T00:31:01.776Z,7.2
2023-04-06T00:32:08.785Z,7.2
2023-04-06T00:33:16.031Z,7.2
2023-04-06T00:34:22.542Z,7.2
2023-04-06T00:35:29.629Z,7.3
2023-04-06T00:36:36.786Z,7.2
2023-04-06T00:37:43.972Z,7.2
2023-04-06T00:38:50.584Z,7.3
2023-04-06T00:39:57.666Z,7.3
2023-04-06T00:41:04.582Z,7.3
2023-04-06T00:42:11.775Z,7.3
2023-04-06T00:43:18.872Z,7.2
2023-04-06T00:44:26.009Z,7.3
2023-04-06T00:45:32.520Z,7.3
2023-04-06T00:46:39.684Z,7.3
2023-04-06T00:47:46.764Z,7.4
2023-04-06T00:48:54.034Z,7.4
2023-04-06T00:50:00.498Z,7.3
2023-04-06T00:51:09.700Z,7.4
2023-04-06T00:52:14.794Z,7.4
2023-04-06T00:53:21.740Z,7.4
2023-04-06T00:54:28.971Z,7.4
2023-04-06T00:55:36.000Z,7.6
2023-04-06T00:56:42.674Z,7.6
2023-04-06T00:58:56.849Z,7.8
2023-04-06T01:00:04.038Z,7.8
2023-04-06T01:01:10.501Z,7.8
2023-04-06T01:02:17.511Z,7.8
2023-04-06T01:03:24.827Z,7.8
2023-04-06T01:04:31.748Z,7.8
2023-04-06T01:05:38.999Z,7.8
2023-04-06T01:06:46.053Z,7.8
2023-04-06T01:07:52.535Z,7.9
2023-04-06T01:08:59.668Z,7.9
2023-04-06T01:10:06.767Z,7.9
2023-04-06T01:11:13.894Z,7.9
2023-04-06T01:12:20.426Z,7.9
2023-04-06T01:13:27.858Z,7.9
2023-04-06T01:14:34.802Z,7.9
2023-04-06T01:15:42.007Z,7.9
2023-04-06T01:16:49.437Z,7.9
2023-04-06T01:17:56.072Z,7.9
2023-04-06T01:19:02.634Z,7.9
2023-04-06T01:20:09.770Z,7.9
2023-04-06T01:21:16.933Z,7.9
2023-04-06T01:22:24.014Z,7.9
2023-04-06T01:23:30.551Z,7.9
2023-04-06T01:25:44.816Z,7.9
2023-04-06T01:26:51.764Z,7.9
2023-04-06T01:27:58.936Z,7.9
2023-04-06T01:29:05.827Z,7.8
2023-04-06T01:30:12.660Z,7.9
2023-04-06T01:31:19.670Z,7.9
2023-04-06T01:32:26.905Z,7.8
2023-04-06T01:33:33.998Z,7.8
2023-04-06T01:34:40.610Z,7.8
2023-04-06T01:35:47.710Z,7.8
2023-04-06T01:36:54.807Z,7.8
2023-04-06T01:38:01.881Z,7.8
2023-04-06T01:39:09.349Z,7.8
2023-04-06T01:40:15.717Z,7.8
2023-04-06T01:41:22.685Z,7.8
2023-04-06T01:42:29.670Z,7.8
2023-04-06T01:43:36.838Z,7.8
2023-04-06T01:44:44.058Z,7.8
2023-04-06T01:45:50.566Z,7.8
2023-04-06T01:46:57.689Z,7.8
2023-04-06T01:48:04.790Z,7.8
2023-04-06T01:49:11.853Z,7.8
2023-04-06T01:50:19.059Z,7.8
2023-04-06T01:51:25.499Z,7.7
2023-04-06T01:52:32.603Z,7.8
2023-04-06T01:53:39.674Z,7.8
2023-04-06T01:54:46.899Z,7.8
2023-04-06T01:55:53.925Z,7.7
2023-04-06T01:57:00.485Z,7.7
2023-04-06T01:58:07.633Z,7.7
2023-04-06T01:59:14.847Z,7.7
2023-04-06T02:00:21.907Z,7.7
2023-04-06T02:02:35.743Z,7.7
2023-04-06T02:03:42.619Z,7.7
2023-04-06T02:04:49.700Z,7.7
2023-04-06T02:05:56.938Z,7.7
2023-04-06T02:07:04.034Z,7.7
2023-04-06T02:08:10.625Z,7.7
2023-04-06T02:09:17.802Z,7.7
2023-04-06T02:10:24.890Z,7.7
2023-04-06T02:11:31.844Z,7.7
2023-04-06T02:12:38.487Z,7.6
2023-04-06T02:13:45.754Z,7.6
2023-04-06T02:14:52.731Z,7.6
2023-04-06T02:15:59.822Z,7.6
2023-04-06T02:17:06.900Z,7.6
2023-04-06T02:18:13.949Z,7.6
2023-04-06T02:19:20.622Z,7.6
2023-04-06T02:20:28.271Z,7.7
2023-04-06T02:21:34.890Z,7.7
2023-04-06T02:22:42.027Z,7.7
2023-04-06T02:23:48.590Z,7.7
2023-04-06T02:24:55.662Z,7.7
2023-04-06T02:26:02.651Z,7.7
2023-04-06T02:27:09.727Z,7.7
2023-04-06T02:28:17.141Z,7.7
2023-04-06T02:29:24.099Z,7.7
2023-04-06T02:30:30.587Z,7.7
2023-04-06T02:31:37.675Z,7.7
2023-04-06T02:32:44.963Z,7.7
2023-04-06T02:33:51.957Z,7.7
2023-04-06T02:34:58.510Z,7.7
2023-04-06T02:36:05.652Z,7.7
2023-04-06T02:37:12.795Z,7.8
2023-04-06T02:38:19.897Z,7.7
2023-04-06T02:39:27.144Z,7.8
2023-04-06T02:40:34.071Z,7.8
2023-04-06T02:41:40.962Z,7.8
2023-04-06T02:42:47.756Z,7.8
2023-04-06T02:43:54.951Z,7.9
2023-04-06T02:45:01.900Z,7.9
2023-04-06T02:46:08.580Z,7.9
2023-04-06T02:47:15.591Z,7.9
2023-04-06T02:48:22.713Z,7.9
2023-04-06T02:49:29.846Z,7.9
2023-04-06T02:50:36.957Z,7.9
2023-04-06T02:51:44.236Z,7.9
2023-04-06T02:53:57.855Z,8
2023-04-06T02:55:04.946Z,8
2023-04-06T02:56:11.897Z,8
2023-04-06T02:57:18.456Z,8
2023-04-06T02:58:25.633Z,8
2023-04-06T02:59:32.771Z,8
2023-04-06T03:00:39.919Z,8.1
2023-04-06T03:01:47.107Z,8.1
2023-04-06T03:02:54.163Z,8.1
2023-04-06T03:04:00.578Z,8.1
2023-04-06T03:06:14.986Z,8.1
2023-04-06T03:07:22.094Z,8.1
2023-04-06T03:08:28.674Z,8.1
2023-04-06T03:09:35.749Z,8.1
2023-04-06T03:10:42.820Z,8.1
2023-04-06T03:11:49.948Z,8.1
2023-04-06T03:12:56.403Z,8.1
2023-04-06T03:14:03.632Z,8.1
2023-04-06T03:15:10.686Z,8.1
2023-04-06T03:16:17.860Z,8.1
2023-04-06T03:17:24.841Z,8
2023-04-06T03:18:32.077Z,8
2023-04-06T03:19:38.585Z,8
2023-04-06T03:20:45.612Z,8
2023-04-06T03:21:52.728Z,7.9
2023-04-06T03:22:59.923Z,8
2023-04-06T03:24:07.028Z,7.9
2023-04-06T03:25:13.612Z,7.9
2023-04-06T03:26:20.592Z,7.9
2023-04-06T03:27:28.005Z,7.9
2023-04-06T03:28:35.093Z,7.9
2023-04-06T03:29:41.987Z,7.8
2023-04-06T03:30:48.491Z,7.8
2023-04-06T03:31:55.777Z,7.8
2023-04-06T03:33:02.969Z,7.8
2023-04-06T03:34:10.017Z,7.8
2023-04-06T03:35:16.758Z,7.8
2023-04-06T03:36:23.799Z,7.8
2023-04-06T03:37:30.611Z,7.8
2023-04-06T03:38:39.588Z,7.7
2023-04-06T03:39:44.971Z,7.7
2023-04-06T03:40:52.059Z,7.8
2023-04-06T03:41:58.507Z,7.7
2023-04-06T03:43:05.657Z,7.7
2023-04-06T03:44:12.789Z,7.7
2023-04-06T03:45:19.923Z,7.6
2023-04-06T03:46:26.612Z,7.6
2023-04-06T03:47:33.737Z,7.5
2023-04-06T03:48:40.816Z,7.5
2023-04-06T03:49:47.746Z,7.5
2023-04-06T03:50:55.015Z,7.5
2023-04-06T03:52:02.243Z,7.5
2023-04-06T03:53:08.525Z,7.5
2023-04-06T03:54:15.795Z,7.5
2023-04-06T03:55:22.852Z,7.5
2023-04-06T03:56:29.843Z,7.5
2023-04-06T03:57:36.621Z,7.5
2023-04-06T03:58:43.649Z,7.5
2023-04-06T03:59:50.653Z,7.4
2023-04-06T04:00:57.818Z,7.4
2023-04-06T04:02:04.939Z,7.4
2023-04-06T04:03:12.174Z,7.4
2023-04-06T04:04:18.771Z,7.4
2023-04-06T04:05:25.854Z,7.3
2023-04-06T04:06:32.778Z,7.3
2023-04-06T04:07:39.962Z,7.3
2023-04-06T04:09:53.791Z,7.3
2023-04-06T04:11:00.652Z,7.3
2023-04-06T04:12:07.758Z,7.3
2023-04-06T04:13:14.985Z,7.3
2023-04-06T04:14:21.619Z,7.3
2023-04-06T04:15:28.670Z,7.3
2023-04-06T04:16:35.754Z,7.3
2023-04-06T04:17:44.305Z,7.3
2023-04-06T04:18:49.937Z,7.3
2023-04-06T04:19:56.547Z,7.3
2023-04-06T04:22:10.734Z,7.3
2023-04-06T04:23:17.866Z,7.3
2023-04-06T04:24:25.064Z,7.3
2023-04-06T04:25:31.614Z,7.3
2023-04-06T04:26:38.643Z,7.3
2023-04-06T04:27:46.234Z,7.4
2023-04-06T04:28:52.950Z,7.4
2023-04-06T04:30:00.102Z,7.4
2023-04-06T04:31:09.783Z,7.4
2023-04-06T04:32:13.652Z,7.4
2023-04-06T04:33:20.772Z,7.4
2023-04-06T04:34:27.961Z,7.4
2023-04-06T04:35:34.609Z,7.4
2023-04-06T04:36:41.478Z,7.4
2023-04-06T04:37:48.588Z,7.4
2023-04-06T04:38:55.930Z,7.4
2023-04-06T04:40:02.997Z,7.4
2023-04-06T04:41:10.054Z,7.4
2023-04-06T04:42:16.595Z,7.4
2023-04-06T04:43:23.824Z,7.4
2023-04-06T04:44:30.797Z,7.4
2023-04-06T04:45:37.959Z,7.4
2023-04-06T04:46:44.568Z,7.4
2023-04-06T04:47:51.703Z,7.4
2023-04-06T04:48:58.773Z,7.4
2023-04-06T04:50:05.766Z,7.4
2023-04-06T04:51:12.818Z,7.4
2023-04-06T04:52:20.065Z,7.3
2023-04-06T04:53:26.657Z,7.3
2023-04-06T04:54:33.937Z,7.3
2023-04-06T04:55:40.866Z,7.3
2023-04-06T04:56:47.833Z,7.3
2023-04-06T04:57:54.444Z,7.3
2023-04-06T04:59:01.739Z,7.3
2023-04-06T05:00:08.777Z,7.3
2023-04-06T05:01:15.987Z,7.3
2023-04-06T05:02:23.081Z,7.3
2023-04-06T05:03:30.214Z,7.3
2023-04-06T05:04:36.595Z,7.3
2023-04-06T05:05:43.684Z,7.2
2023-04-06T05:06:51.083Z,7.2
2023-04-06T05:07:57.985Z,7.2
2023-04-06T05:09:04.548Z,7.2
2023-04-06T05:10:13.442Z,7.2
2023-04-06T05:11:18.647Z,7.2
2023-04-06T05:13:33.102Z,7.1
2023-04-06T05:14:39.965Z,7.1
2023-04-06T05:15:46.705Z,7.1
2023-04-06T05:16:53.823Z,7.1
2023-04-06T05:18:00.984Z,7.1
2023-04-06T05:19:08.209Z,7.1
2023-04-06T05:20:14.648Z,7
2023-04-06T05:21:21.715Z,7
2023-04-06T05:22:28.685Z,7
2023-04-06T05:23:36.237Z,7
2023-04-06T05:24:43.112Z,7
2023-04-06T05:25:50.153Z,7
2023-04-06T05:26:56.599Z,7
2023-04-06T05:28:03.724Z,7
2023-04-06T05:29:11.218Z,6.9
2023-04-06T05:30:17.977Z,6.9
2023-04-06T05:31:25.185Z,6.9
2023-04-06T05:32:31.777Z,6.9
2023-04-06T05:33:38.807Z,6.9
2023-04-06T05:34:45.915Z,6.9
2023-04-06T05:35:53.148Z,6.8
2023-04-06T05:36:59.681Z,6.8
2023-04-06T05:38:06.727Z,6.8
2023-04-06T05:39:13.829Z,6.8
2023-04-06T05:40:20.870Z,6.7
2023-04-06T05:41:27.894Z,6.7
2023-04-06T05:42:34.506Z,6.7
2023-04-06T05:43:41.832Z,6.7
2023-04-06T05:44:48.675Z,6.7
2023-04-06T05:45:55.926Z,6.7
2023-04-06T05:47:03.206Z,6.7
2023-04-06T05:48:09.636Z,6.7
2023-04-06T05:50:23.843Z,6.7
2023-04-06T05:51:30.920Z,6.6
2023-04-06T05:52:38.154Z,6.6
2023-04-06T05:53:44.696Z,6.6
2023-04-06T05:54:51.768Z,6.5
2023-04-06T05:55:59.406Z,6.5
2023-04-06T05:57:05.976Z,6.5
2023-04-06T05:58:12.551Z,6.4
2023-04-06T05:59:19.759Z,6.4
2023-04-06T06:00:26.717Z,6.4
2023-04-06T06:01:33.916Z,6.4
2023-04-06T06:02:40.997Z,6.4
2023-04-06T06:03:47.961Z,6.4
2023-04-06T06:04:54.564Z,6.4
2023-04-06T06:06:01.696Z,6.4
2023-04-06T06:07:08.912Z,6.4
2023-04-06T06:08:15.901Z,6.4
2023-04-06T06:09:22.579Z,6.4
2023-04-06T06:10:32.825Z,6.4
2023-04-06T06:11:36.623Z,6.4
2023-04-06T06:12:43.745Z,6.4
2023-04-06T06:13:50.873Z,6.4
2023-04-06T06:14:57.983Z,6.4
2023-04-06T06:17:11.784Z,6.4
2023-04-06T06:18:18.820Z,6.5
2023-04-06T06:19:26.004Z,6.4
2023-04-06T06:20:32.448Z,6.4
2023-04-06T06:21:39.672Z,6.4
2023-04-06T06:22:46.656Z,6.4
2023-04-06T06:23:53.870Z,6.4
2023-04-06T06:25:00.979Z,6.4
2023-04-06T06:26:26.133Z,6.5
2023-04-06T06:27:14.559Z,6.5
2023-04-06T06:28:21.800Z,6.5
2023-04-06T06:29:28.936Z,6.5
2023-04-06T06:30:35.946Z,6.5
2023-04-06T06:31:42.663Z,6.5
2023-04-06T06:32:49.700Z,6.5
2023-04-06T06:33:56.987Z,6.5
2023-04-06T06:35:04.679Z,6.6
2023-04-06T06:36:10.919Z,6.6
2023-04-06T06:37:18.132Z,6.7
2023-04-06T06:38:24.575Z,6.7
2023-04-06T06:39:31.769Z,6.7
2023-04-06T06:40:38.751Z,6.7
2023-04-06T06:41:45.909Z,6.7
2023-04-06T06:42:52.564Z,6.7
2023-04-06T06:43:59.555Z,6.7
2023-04-06T06:45:06.766Z,6.7
2023-04-06T06:46:13.832Z,6.8
2023-04-06T06:47:20.920Z,6.8
2023-04-06T06:48:27.469Z,6.8
2023-04-06T06:49:34.625Z,6.8
2023-04-06T06:50:41.693Z,6.9
2023-04-06T06:51:48.854Z,7
2023-04-06T06:52:55.916Z,7
2023-04-06T06:54:02.522Z,7
2023-04-06T06:55:09.621Z,7.1
2023-04-06T06:56:16.733Z,7.1
2023-04-06T06:57:23.816Z,7.2
2023-04-06T06:58:30.975Z,7.2
2023-04-06T06:59:37.827Z,7.2
2023-04-06T07:00:44.673Z,7.3
2023-04-06T07:01:51.703Z,7.3
2023-04-06T07:02:58.844Z,7.4
2023-04-06T07:04:06.129Z,7.4
2023-04-06T07:05:26.152Z,7.4
2023-04-06T07:06:19.668Z,7.4
2023-04-06T07:07:26.722Z,7.5
2023-04-06T07:08:33.872Z,7.5
2023-04-06T07:09:40.951Z,7.5
2023-04-06T07:10:47.512Z,7.6
2023-04-06T07:11:54.648Z,7.6
2023-04-06T07:13:01.771Z,7.6
2023-04-06T07:14:09.290Z,7.7
2023-04-06T07:15:15.937Z,7.7
2023-04-06T07:16:22.604Z,7.7
2023-04-06T07:18:36.756Z,7.8
2023-04-06T07:20:50.439Z,7.9
2023-04-06T07:21:57.513Z,7.9
2023-04-06T07:23:04.650Z,7.9
2023-04-06T07:24:11.821Z,7.9
2023-04-06T07:25:18.844Z,8
2023-04-06T07:26:25.947Z,8.1
2023-04-06T07:27:32.565Z,8.1
2023-04-06T07:28:39.902Z,8.1
2023-04-06T07:29:46.829Z,8.1
2023-04-06T07:30:53.926Z,8.1
2023-04-06T07:32:00.533Z,8
2023-04-06T07:33:07.549Z,7.9
2023-04-06T07:34:14.745Z,7.9
2023-04-06T07:35:21.865Z,7.7
2023-04-06T07:36:28.859Z,7.6
2023-04-06T07:37:35.996Z,7.5
2023-04-06T07:38:43.106Z,7.5
2023-04-06T07:39:50.685Z,7.4
2023-04-06T07:40:56.815Z,7.4
2023-04-06T07:42:03.897Z,7.4
2023-04-06T07:43:10.505Z,7.3
2023-04-06T07:44:17.756Z,7.3
2023-04-06T07:45:24.686Z,7.3
2023-04-06T07:46:31.890Z,7.3
2023-04-06T07:47:39.109Z,7.3
2023-04-06T07:48:46.127Z,7.3
2023-04-06T07:49:52.578Z,7.2
2023-04-06T07:50:59.650Z,7.2
2023-04-06T07:52:06.830Z,7.2
2023-04-06T07:53:13.892Z,7.2
2023-04-06T07:54:21.603Z,7.2
2023-04-06T07:55:27.555Z,7.2
2023-04-06T07:56:34.691Z,7.2
2023-04-06T07:57:41.894Z,7.2
2023-04-06T07:58:49.109Z,7.1
2023-04-06T07:59:55.995Z,7.1
2023-04-06T08:01:02.648Z,7
2023-04-06T08:02:09.682Z,7
2023-04-06T08:03:16.888Z,7
2023-04-06T08:04:24.093Z,7
2023-04-06T08:05:30.536Z,7
2023-04-06T08:06:37.570Z,7
2023-04-06T08:07:44.763Z,7
2023-04-06T08:08:51.934Z,7
2023-04-06T08:09:58.986Z,7
2023-04-06T08:11:05.581Z,7
2023-04-06T08:12:12.686Z,7
2023-04-06T08:13:19.824Z,7
2023-04-06T08:14:26.865Z,7
2023-04-06T08:15:33.970Z,7
2023-04-06T08:16:40.481Z,6.9
2023-04-06T08:17:47.610Z,6.9
2023-04-06T08:18:54.848Z,6.9
2023-04-06T08:20:01.887Z,6.9
2023-04-06T08:21:09.962Z,6.9
2023-04-06T08:22:15.508Z,6.8
2023-04-06T08:24:29.695Z,6.8
2023-04-06T08:25:36.830Z,6.8
2023-04-06T08:26:43.414Z,6.8
2023-04-06T08:27:50.496Z,6.8
2023-04-06T08:28:57.636Z,6.8
2023-04-06T08:30:04.755Z,6.8
2023-04-06T08:31:11.904Z,6.8
2023-04-06T08:32:18.438Z,6.8
2023-04-06T08:33:25.538Z,6.8
2023-04-06T08:34:32.714Z,6.8
2023-04-06T08:35:39.720Z,6.8
2023-04-06T08:36:46.865Z,6.8
2023-04-06T08:37:53.436Z,6.8
2023-04-06T08:39:00.511Z,6.8
2023-04-06T08:40:07.610Z,6.8
2023-04-06T08:41:14.763Z,6.8
2023-04-06T08:42:22.378Z,6.8
2023-04-06T08:43:28.419Z,6.8
2023-04-06T08:44:35.560Z,6.8
2023-04-06T08:46:49.852Z,6.8
2023-04-06T08:47:56.919Z,6.8
2023-04-06T08:49:03.415Z,6.8
2023-04-06T08:50:10.522Z,6.9
2023-04-06T08:51:17.625Z,6.9
2023-04-06T08:52:24.755Z,6.9
2023-04-06T08:53:31.871Z,6.9
2023-04-06T08:54:38.985Z,6.9
2023-04-06T08:55:45.582Z,6.9
2023-04-06T08:56:52.657Z,7
2023-04-06T08:57:59.733Z,7
2023-04-06T08:59:06.978Z,7
2023-04-06T09:00:14.004Z,7
2023-04-06T09:01:20.599Z,7
2023-04-06T09:02:27.778Z,7
2023-04-06T09:03:35.014Z,7
2023-04-06T09:04:42.064Z,7.1
2023-04-06T09:05:48.514Z,7.1
2023-04-06T09:06:55.617Z,7.1
2023-04-06T09:08:02.725Z,7.2
2023-04-06T09:09:09.852Z,7.2
2023-04-06T09:10:16.982Z,7.2
2023-04-06T09:11:24.000Z,7.1
2023-04-06T09:12:30.603Z,7.2
2023-04-06T09:13:37.698Z,7.2
2023-04-06T09:14:44.905Z,7.2
2023-04-06T09:15:51.965Z,7.2
2023-04-06T09:16:58.463Z,7.2
2023-04-06T09:18:05.668Z,7.2
2023-04-06T09:19:12.725Z,7.2
2023-04-06T09:20:19.832Z,7.3
2023-04-06T09:21:27.206Z,7.3
2023-04-06T09:22:34.572Z,7.3
2023-04-06T09:23:40.666Z,7.3
2023-04-06T09:24:47.713Z,7.2
2023-04-06T09:25:54.815Z,7.2
2023-04-06T09:28:08.472Z,7.2
2023-04-06T09:29:15.643Z,7.2
2023-04-06T09:30:22.816Z,7.2
2023-04-06T09:31:29.817Z,7.2
2023-04-06T09:32:37.018Z,7.2
2023-04-06T09:33:44.039Z,7.2
2023-04-06T09:34:51.060Z,7.1
2023-04-06T09:35:57.835Z,7.2
2023-04-06T09:37:04.851Z,7.1
2023-04-06T09:38:11.962Z,7.2
2023-04-06T09:39:18.701Z,7.1
2023-04-06T09:40:25.648Z,7.2
2023-04-06T09:41:32.775Z,7.2
2023-04-06T09:42:39.845Z,7.2
2023-04-06T09:43:46.960Z,7.2
2023-04-06T09:44:53.562Z,7.2
2023-04-06T09:46:01.191Z,7.2
2023-04-06T09:47:07.785Z,7.2
2023-04-06T09:48:14.911Z,7.2
2023-04-06T09:49:22.003Z,7.2
2023-04-06T09:50:28.520Z,7.2
2023-04-06T09:51:36.202Z,7.2
2023-04-06T09:52:42.787Z,7.2
2023-04-06T09:53:49.856Z,7.2
2023-04-06T09:54:56.952Z,7.3
2023-04-06T09:56:03.553Z,7.3
2023-04-06T09:57:13.277Z,7.4
2023-04-06T09:58:17.845Z,7.4
2023-04-06T09:59:24.939Z,7.4
2023-04-06T10:00:32.041Z,7.5
2023-04-06T10:01:38.558Z,7.5
2023-04-06T10:02:45.731Z,7.5
2023-04-06T10:03:53.006Z,7.6
2023-04-06T10:04:59.862Z,7.6
2023-04-06T10:06:06.505Z,7.6
2023-04-06T10:07:13.592Z,7.7
2023-04-06T10:08:20.653Z,7.7
2023-04-06T10:09:27.809Z,7.7
2023-04-06T10:10:34.885Z,7.7
2023-04-06T10:11:42.028Z,7.8
2023-04-06T10:12:48.558Z,7.8
2023-04-06T10:15:02.816Z,7.8
2023-04-06T10:16:09.923Z,7.9
2023-04-06T10:17:17.048Z,7.9
2023-04-06T10:18:23.563Z,7.9
2023-04-06T10:19:30.789Z,8
2023-04-06T10:20:37.777Z,8
2023-04-06T10:21:44.890Z,8
2023-04-06T10:22:52.014Z,8
2023-04-06T10:23:58.590Z,8
2023-04-06T10:25:05.762Z,8.1
2023-04-06T10:26:12.796Z,8.1
2023-04-06T10:27:19.894Z,8.1
2023-04-06T10:28:26.501Z,8.1
2023-04-06T10:29:33.634Z,8.1
2023-04-06T10:31:47.828Z,8.1
2023-04-06T10:32:55.051Z,8.1
2023-04-06T10:34:02.040Z,8.1
2023-04-06T10:35:08.640Z,8.1
2023-04-06T10:36:15.800Z,8.2
2023-04-06T10:37:22.857Z,8.2
2023-04-06T10:38:29.929Z,8.1
2023-04-06T10:39:36.531Z,8.1
2023-04-06T10:40:43.642Z,8.1
2023-04-06T10:41:50.715Z,8.1
2023-04-06T10:42:57.859Z,8.1
2023-04-06T10:44:04.920Z,8.1
2023-04-06T10:45:12.108Z,8.1
2023-04-06T10:46:18.710Z,8.1
2023-04-06T10:47:25.827Z,8.1
2023-04-06T10:48:32.871Z,8.2
2023-04-06T10:49:40.024Z,8.2
2023-04-06T10:50:47.069Z,8.3
2023-04-06T10:51:53.768Z,8.3
2023-04-06T10:53:00.703Z,8.3
2023-04-06T10:54:07.852Z,8.4
2023-04-06T10:55:15.025Z,8.4
2023-04-06T10:56:22.044Z,8.5
2023-04-06T10:57:28.616Z,8.5
2023-04-06T10:58:36.326Z,8.5
2023-04-06T10:59:42.869Z,8.5
2023-04-06T11:00:51.101Z,8.6
2023-04-06T11:01:56.548Z,8.6
2023-04-06T11:03:03.709Z,8.6
2023-04-06T11:04:10.855Z,8.6
2023-04-06T11:05:17.924Z,8.7
2023-04-06T11:06:24.980Z,8.6
2023-04-06T11:07:31.535Z,8.6
2023-04-06T11:08:38.949Z,8.6
2023-04-06T11:09:53.221Z,8.6
2023-04-06T11:10:52.870Z,8.6
2023-04-06T11:11:59.966Z,8.7
2023-04-06T11:13:06.549Z,8.7
2023-04-06T11:14:13.698Z,8.8
2023-04-06T11:15:20.811Z,8.8
2023-04-06T11:16:27.889Z,8.9
2023-04-06T11:17:35.005Z,8.9
2023-04-06T11:18:41.569Z,9
2023-04-06T11:19:48.622Z,9
2023-04-06T11:23:09.728Z,9.2
2023-04-06T11:24:16.715Z,9.3
2023-04-06T11:25:23.785Z,9.3
2023-04-06T11:26:30.910Z,9.3
2023-04-06T11:27:38.039Z,9.3
2023-04-06T11:28:44.615Z,9.3
2023-04-06T11:29:52.026Z,9.2
2023-04-06T11:31:00.636Z,9.2
2023-04-06T11:32:05.972Z,9.2
2023-04-06T11:33:12.513Z,9.2
2023-04-06T11:35:26.738Z,9.3
2023-04-06T11:36:33.790Z,9.4
2023-04-06T11:37:40.904Z,9.3
2023-04-06T11:38:48.065Z,9.4
2023-04-06T11:39:54.682Z,9.4
2023-04-06T11:41:01.724Z,9.5
2023-04-06T11:43:15.946Z,9.6
2023-04-06T11:44:22.507Z,9.6
2023-04-06T11:45:29.717Z,9.6
2023-04-06T11:46:36.767Z,9.5
2023-04-06T11:47:45.401Z,9.5
2023-04-06T11:48:50.946Z,9.5
2023-04-06T11:49:58.126Z,9.5
2023-04-06T11:51:04.627Z,9.5
2023-04-06T11:52:13.879Z,9.5
2023-04-06T11:53:18.834Z,9.5
2023-04-06T11:55:33.449Z,9.5
2023-04-06T11:56:39.649Z,9.5
2023-04-06T11:57:46.753Z,9.5
2023-04-06T11:58:53.901Z,9.5
2023-04-06T12:00:01.004Z,9.5
2023-04-06T12:01:07.555Z,9.5
2023-04-06T12:02:14.720Z,9.5
2023-04-06T12:03:21.899Z,9.5
2023-04-06T12:04:28.930Z,9.4
2023-04-06T12:05:35.986Z,9.5
2023-04-06T12:06:42.532Z,9.5
2023-04-06T12:07:49.685Z,9.5
2023-04-06T12:08:56.858Z,9.5
2023-04-06T12:10:03.930Z,9.5
2023-04-06T12:11:10.987Z,9.5
2023-04-06T12:12:17.612Z,9.5
2023-04-06T12:13:24.704Z,9.5
2023-04-06T12:14:31.880Z,9.5
2023-04-06T12:15:38.862Z,9.5
2023-04-06T12:16:45.990Z,9.4
2023-04-06T12:17:52.589Z,9.4
2023-04-06T12:19:00.192Z,9.4
2023-04-06T12:20:18.015Z,9.5
2023-04-06T12:21:13.909Z,9.5
2023-04-06T12:22:20.439Z,9.6
2023-04-06T12:23:27.621Z,9.6
2023-04-06T12:24:34.696Z,9.6
2023-04-06T12:25:41.776Z,9.6
2023-04-06T12:26:51.681Z,9.6
2023-04-06T12:27:56.026Z,9.7
2023-04-06T12:29:02.642Z,9.7
2023-04-06T12:30:09.687Z,9.8
2023-04-06T12:31:16.842Z,9.8
2023-04-06T12:32:23.906Z,9.8
2023-04-06T12:33:30.587Z,9.8
2023-04-06T12:34:37.629Z,9.8
2023-04-06T12:35:44.816Z,9.8
2023-04-06T12:36:51.801Z,9.8
2023-04-06T12:37:58.917Z,9.8
2023-04-06T12:39:06.011Z,9.8
2023-04-06T12:40:12.580Z,10
2023-04-06T12:41:19.701Z,10.1
2023-04-06T12:42:26.849Z,10.1
2023-04-06T12:43:33.912Z,10.3
2023-04-06T12:44:40.506Z,10.4
2023-04-06T12:45:47.654Z,10.5
2023-04-06T12:46:54.871Z,10.5
2023-04-06T12:48:01.903Z,10.5
2023-04-06T12:49:08.914Z,10.4
2023-04-06T12:50:16.030Z,10.4
2023-04-06T12:51:22.579Z,10.4
2023-04-06T12:52:29.717Z,10.3
2023-04-06T12:53:36.836Z,10.3
2023-04-06T12:54:43.944Z,10.1
2023-04-06T12:55:50.508Z,10.1
2023-04-06T12:56:58.170Z,10.1
2023-04-06T12:58:04.737Z,10.1
2023-04-06T12:59:11.877Z,10.1
2023-04-06T13:00:19.044Z,10.1
2023-04-06T13:01:26.133Z,10.1
2023-04-06T13:02:32.672Z,10.1
2023-04-06T13:03:39.751Z,10.1
2023-04-06T13:04:46.886Z,10
2023-04-06T13:05:54.020Z,10
2023-04-06T13:07:00.494Z,10
2023-04-06T13:08:07.633Z,10
2023-04-06T13:09:14.750Z,10
2023-04-06T13:10:21.873Z,10
2023-04-06T13:11:29.044Z,10
2023-04-06T13:12:35.539Z,10
2023-04-06T13:13:42.633Z,10
2023-04-06T13:14:49.737Z,10.1
2023-04-06T13:15:56.880Z,10.1
2023-04-06T13:17:03.924Z,10.1
2023-04-06T13:18:10.607Z,10.1
2023-04-06T13:19:17.655Z,10.1
2023-04-06T13:20:24.761Z,10.1
2023-04-06T13:21:31.832Z,10
2023-04-06T13:22:38.965Z,9.9
2023-04-06T13:23:45.566Z,9.9
2023-04-06T13:24:52.619Z,9.9
2023-04-06T13:25:59.766Z,9.9
2023-04-06T13:27:06.886Z,9.9
2023-04-06T13:28:14.051Z,9.8
2023-04-06T13:29:20.531Z,9.8
2023-04-06T13:30:27.722Z,9.8
2023-04-06T13:31:34.809Z,9.8
2023-04-06T13:32:41.868Z,9.9
2023-04-06T13:33:48.474Z,10
2023-04-06T13:34:55.577Z,10
2023-04-06T13:36:02.647Z,10
2023-04-06T13:37:09.781Z,10
2023-04-06T13:38:16.895Z,10
2023-04-06T13:39:23.962Z,10
2023-04-06T13:40:30.589Z,10
2023-04-06T13:42:44.933Z,10.1
2023-04-06T13:43:51.871Z,10.2
2023-04-06T13:44:58.623Z,10.1
2023-04-06T13:46:05.618Z,10.1
2023-04-06T13:47:13.185Z,10.1
2023-04-06T13:48:19.863Z,10.1
2023-04-06T13:49:26.902Z,10.1
2023-04-06T13:50:33.994Z,10.2
2023-04-06T13:51:40.555Z,10.2
2023-04-06T13:52:47.705Z,10.2
2023-04-06T13:53:54.798Z,10.1
2023-04-06T13:55:01.949Z,10.2
2023-04-06T13:56:08.540Z,10.2
2023-04-06T13:57:15.562Z,10.3
2023-04-06T13:58:22.699Z,10.3
2023-04-06T13:59:30.327Z,10.3
2023-04-06T14:00:37.027Z,10.3
2023-04-06T14:01:44.044Z,10.3
2023-04-06T14:02:50.686Z,10.3
2023-04-06T14:03:57.817Z,10.3
2023-04-06T14:05:04.863Z,10.3
2023-04-06T14:07:18.505Z,10.3
2023-04-06T14:08:25.607Z,10.3
2023-04-06T14:09:32.748Z,10.3
2023-04-06T14:10:39.827Z,10.3
2023-04-06T14:11:46.949Z,10.3
2023-04-06T14:12:53.998Z,10.3
2023-04-06T14:14:00.584Z,10.3
2023-04-06T14:15:07.730Z,10.3
2023-04-06T14:16:14.839Z,10.4
2023-04-06T14:17:21.930Z,10.4
2023-04-06T14:18:28.505Z,10.4
2023-04-06T14:19:35.787Z,10.3
2023-04-06T14:20:42.686Z,10.4
2023-04-06T14:21:49.875Z,10.4
2023-04-06T14:22:56.945Z,10.3
2023-04-06T14:24:03.493Z,10.3
2023-04-06T14:25:10.589Z,10.4
2023-04-06T14:26:17.754Z,10.3
2023-04-06T14:27:24.835Z,10.3
2023-04-06T14:28:31.926Z,10.3
2023-04-06T14:29:39.912Z,10.3
2023-04-06T14:30:45.669Z,10.3
2023-04-06T14:31:52.731Z,10.3
2023-04-06T14:32:59.974Z,10.3
2023-04-06T14:34:06.958Z,10.2
2023-04-06T14:35:13.513Z,10.1
2023-04-06T14:36:20.631Z,10.1
2023-04-06T14:37:27.749Z,10.1
2023-04-06T14:39:41.987Z,10.1
2023-04-06T14:40:48.578Z,10.1
2023-04-06T14:41:55.661Z,10.2
2023-04-06T14:43:02.724Z,10.2
2023-04-06T14:44:09.910Z,10.2
2023-04-06T14:46:23.601Z,10.1
2023-04-06T14:47:30.714Z,10.1
2023-04-06T14:48:37.778Z,10.1
2023-04-06T14:49:44.873Z,10
2023-04-06T14:50:51.947Z,10
2023-04-06T14:51:58.566Z,10
2023-04-06T14:53:05.673Z,9.9
2023-04-06T14:54:12.757Z,9.9
2023-04-06T14:55:19.922Z,9.9
2023-04-06T14:56:26.526Z,10
2023-04-06T14:57:33.546Z,9.9
2023-04-06T14:58:40.645Z,9.8
2023-04-06T14:59:47.791Z,9.8
2023-04-06T15:00:54.901Z,9.7
2023-04-06T15:02:02.030Z,9.6
2023-04-06T15:03:08.869Z,9.6
2023-04-06T15:04:16.258Z,9.6
2023-04-06T15:05:22.809Z,9.6
2023-04-06T15:06:29.911Z,9.6
2023-04-06T15:07:36.487Z,9.6
2023-04-06T15:08:43.559Z,9.6
2023-04-06T15:09:50.670Z,9.6
2023-04-06T15:10:57.773Z,9.7
2023-04-06T15:12:04.894Z,9.8
2023-04-06T15:13:11.974Z,9.9
2023-04-06T15:14:18.571Z,9.9
2023-04-06T15:15:26.256Z,9.9
2023-04-06T15:16:32.848Z,9.8
2023-04-06T15:17:39.960Z,9.8
2023-04-06T15:18:46.499Z,9.8
2023-04-06T15:19:53.575Z,9.8
2023-04-06T15:21:00.675Z,9.7
2023-04-06T15:22:07.811Z,9.7
2023-04-06T15:23:14.915Z,9.7
2023-04-06T15:24:21.989Z,9.8
2023-04-06T15:25:28.601Z,9.7
2023-04-06T15:26:35.714Z,9.7
2023-04-06T15:27:42.776Z,9.7
2023-04-06T15:28:49.913Z,9.7
2023-04-06T15:29:56.546Z,9.7
2023-04-06T15:31:03.621Z,9.7
2023-04-06T15:32:13.427Z,9.7
2023-04-06T15:33:17.786Z,9.7
2023-04-06T15:34:24.932Z,9.7
2023-04-06T15:35:31.504Z,9.8
2023-04-06T15:36:38.644Z,9.8
2023-04-06T15:37:45.719Z,9.9
2023-04-06T15:38:52.800Z,9.8
2023-04-06T15:40:01.346Z,9.9
2023-04-06T15:41:06.545Z,9.8
2023-04-06T15:42:13.608Z,9.8
2023-04-06T15:43:20.716Z,9.7
2023-04-06T15:44:27.905Z,9.7
2023-04-06T15:45:34.943Z,9.7
2023-04-06T15:46:41.499Z,9.7
2023-04-06T15:47:48.637Z,9.7
2023-04-06T15:48:55.743Z,9.7
2023-04-06T15:50:02.967Z,9.6
2023-04-06T15:51:09.954Z,9.6
2023-04-06T15:52:16.507Z,9.7
2023-04-06T15:53:23.630Z,9.6
2023-04-06T15:54:30.718Z,9.7